Time,TemperatureF,DewpointF,PressureIn,WindDirection,WindDirectionDegrees,WindSpeedMPH,WindSpeedGustMPH,Humidity,HourlyPrecipIn,Conditions,Clouds,dailyrainin,SoftwareType,DateUTC
2013-03-06 00:00:00,39.0,26.0,29.85,ENE,70,15.0,16.0,59,-99.99,,,-99.99,,2013-03-06 05:00:00,
2013-03-06 00:11:00,39.0,26.0,29.85,ENE,70,15.0,16.0,59,-99.99,,,-99.99,,2013-03-06 05:11:00,
2013-03-06 00:22:00,39.0,26.0,29.85,ENE,70,15.0,16.0,59,-99.99,,,-99.99,,2013-03-06 05:22:00,
2013-03-06 00:32:00,39.0,26.0,29.85,ENE,70,15.0,16.0,59,-99.99,,,-99.99,,2013-03-06 05:32:00,
2013-03-06 00:41:00,39.0,26.0,29.85,ENE,70,15.0,16.0,59,-99.99,,,-99.99,,2013-03-06 05:41:00,
2013-03-06 00:52:00,39.0,26.0,29.85,ENE,70,15.0,16.0,59,-99.99,,,-99.99,,2013-03-06 05:52:00,
2013-03-06 01:00:00,35.0,33.0,29.83,East,80,18.0,21.0,91,-99.99,,,-99.99,,2013-03-06 06:00:00,
2013-03-06 01:21:00,35.0,33.0,29.83,East,80,18.0,21.0,91,-99.99,,,-99.99,,2013-03-06 06:21:00,
2013-03-06 01:31:00,35.0,33.0,29.83,East,80,18.0,21.0,91,-99.99,,,-99.99,,2013-03-06 06:31:00,
2013-03-06 01:41:00,35.0,33.0,29.83,East,80,18.0,21.0,91,-99.99,,,-99.99,,2013-03-06 06:41:00,
2013-03-06 01:52:00,35.0,33.0,29.83,East,80,18.0,21.0,91,-99.99,,,-99.99,,2013-03-06 06:52:00,
2013-03-06 02:00:00,34.0,34.0,29.75,ENE,60,18.0,22.0,100,-99.99,,,-99.99,,2013-03-06 07:00:00,
2013-03-06 02:11:00,34.0,34.0,29.75,ENE,60,18.0,22.0,100,-99.99,,,-99.99,,2013-03-06 07:11:00,
2013-03-06 02:21:00,34.0,34.0,29.75,ENE,60,18.0,22.0,100,-99.99,,,-99.99,,2013-03-06 07:21:00,
2013-03-06 02:31:00,34.0,34.0,29.75,ENE,60,18.0,22.0,100,-99.99,,,-99.99,,2013-03-06 07:31:00,
2013-03-06 02:41:00,34.0,34.0,29.75,ENE,60,18.0,22.0,100,-99.99,,,-99.99,,2013-03-06 07:41:00,
2013-03-06 02:52:00,34.0,34.0,29.75,ENE,60,18.0,22.0,100,-99.99,,,-99.99,,2013-03-06 07:52:00,
2013-03-06 03:00:00,36.0,36.0,29.72,ENE,70,23.0,25.0,100,-99.99,,,-99.99,,2013-03-06 08:00:00,
2013-03-06 03:21:00,36.0,36.0,29.72,ENE,70,23.0,25.0,100,-99.99,,,-99.99,,2013-03-06 08:21:00,
2013-03-06 03:31:00,36.0,36.0,29.72,ENE,70,23.0,25.0,100,-99.99,,,-99.99,,2013-03-06 08:31:00,
2013-03-06 03:41:00,36.0,36.0,29.72,ENE,70,23.0,25.0,100,-99.99,,,-99.99,,2013-03-06 08:41:00,
2013-03-06 03:52:00,36.0,36.0,29.72,ENE,70,23.0,25.0,100,-99.99,,,-99.99,,2013-03-06 08:52:00,
2013-03-06 04:00:00,37.0,37.0,29.66,ENE,60,23.0,26.0,100,-99.99,,,-99.99,,2013-03-06 09:00:00,
2013-03-06 04:12:00,37.0,37.0,29.66,ENE,60,23.0,26.0,100,-99.99,,,-99.99,,2013-03-06 09:12:00,
2013-03-06 04:21:00,37.0,37.0,29.66,ENE,60,23.0,26.0,100,-99.99,,,-99.99,,2013-03-06 09:21:00,
2013-03-06 04:31:00,37.0,37.0,29.66,ENE,60,23.0,26.0,100,-99.99,,,-99.99,,2013-03-06 09:31:00,
2013-03-06 04:41:00,37.0,37.0,29.66,ENE,60,23.0,26.0,100,-99.99,,,-99.99,,2013-03-06 09:41:00,
2013-03-06 04:51:00,37.0,37.0,29.66,ENE,60,23.0,26.0,100,-99.99,,,-99.99,,2013-03-06 09:51:00,
2013-03-06 05:00:00,38.0,38.0,29.67,ENE,70,22.0,24.0,100,-99.99,,,-99.99,,2013-03-06 10:00:00,
2013-03-06 05:21:00,38.0,38.0,29.67,ENE,70,22.0,24.0,100,-99.99,,,-99.99,,2013-03-06 10:21:00,
2013-03-06 05:31:00,38.0,38.0,29.67,ENE,70,22.0,24.0,100,-99.99,,,-99.99,,2013-03-06 10:31:00,
2013-03-06 05:41:00,38.0,38.0,29.67,ENE,70,22.0,24.0,100,-99.99,,,-99.99,,2013-03-06 10:41:00,
2013-03-06 05:51:00,38.0,38.0,29.67,ENE,70,22.0,24.0,100,-99.99,,,-99.99,,2013-03-06 10:51:00,
2013-03-06 06:00:00,39.0,39.0,29.65,NE,50,22.0,24.0,100,-99.99,,,-99.99,,2013-03-06 11:00:00,
2013-03-06 06:11:00,39.0,39.0,29.65,NE,50,22.0,24.0,100,-99.99,,,-99.99,,2013-03-06 11:11:00,
2013-03-06 06:22:00,39.0,39.0,29.65,NE,50,22.0,24.0,100,-99.99,,,-99.99,,2013-03-06 11:22:00,
2013-03-06 06:31:00,39.0,39.0,29.65,NE,50,22.0,24.0,100,-99.99,,,-99.99,,2013-03-06 11:31:00,
2013-03-06 06:42:00,39.0,39.0,29.65,NE,50,22.0,24.0,100,-99.99,,,-99.99,,2013-03-06 11:42:00,
2013-03-06 06:52:00,39.0,39.0,29.65,NE,50,22.0,24.0,100,-99.99,,,-99.99,,2013-03-06 11:52:00,
2013-03-06 07:00:00,38.0,38.0,29.62,NE,50,28.0,33.0,100,-99.99,,,-99.99,,2013-03-06 12:00:00,
2013-03-06 07:11:00,38.0,38.0,29.62,NE,50,28.0,33.0,100,-99.99,,,-99.99,,2013-03-06 12:11:00,
2013-03-06 07:21:00,38.0,38.0,29.62,NE,50,28.0,33.0,100,-99.99,,,-99.99,,2013-03-06 12:21:00,
2013-03-06 07:32:00,38.0,38.0,29.62,NE,50,28.0,33.0,100,-99.99,,,-99.99,,2013-03-06 12:32:00,
2013-03-06 07:42:00,38.0,38.0,29.62,NE,50,28.0,33.0,100,-99.99,,,-99.99,,2013-03-06 12:42:00,
2013-03-06 07:52:00,38.0,38.0,29.62,NE,50,28.0,33.0,100,-99.99,,,-99.99,,2013-03-06 12:52:00,
2013-03-06 08:00:00,38.0,38.0,29.60,NNE,30,28.0,32.0,100,-99.99,,,-99.99,,2013-03-06 13:00:00,
2013-03-06 08:21:00,38.0,38.0,29.60,NNE,30,28.0,32.0,100,-99.99,,,-99.99,,2013-03-06 13:21:00,
2013-03-06 08:31:00,38.0,38.0,29.60,NNE,30,28.0,32.0,100,-99.99,,,-99.99,,2013-03-06 13:31:00,
2013-03-06 08:41:00,38.0,38.0,29.60,NNE,30,28.0,32.0,100,-99.99,,,-99.99,,2013-03-06 13:41:00,
2013-03-06 08:51:00,38.0,38.0,29.60,NNE,30,28.0,32.0,100,-99.99,,,-99.99,,2013-03-06 13:51:00,
2013-03-06 09:00:00,39.0,39.0,29.59,NNE,30,30.0,34.0,100,-99.99,,,-99.99,,2013-03-06 14:00:00,
2013-03-06 09:11:00,39.0,39.0,29.59,NNE,30,30.0,34.0,100,-99.99,,,-99.99,,2013-03-06 14:11:00,
2013-03-06 09:21:00,39.0,39.0,29.59,NNE,30,30.0,34.0,100,-99.99,,,-99.99,,2013-03-06 14:21:00,
2013-03-06 09:31:00,39.0,39.0,29.59,NNE,30,30.0,34.0,100,-99.99,,,-99.99,,2013-03-06 14:31:00,
2013-03-06 09:41:00,39.0,39.0,29.59,NNE,30,30.0,34.0,100,-99.99,,,-99.99,,2013-03-06 14:41:00,
2013-03-06 09:52:00,39.0,39.0,29.59,NNE,30,30.0,34.0,100,-99.99,,,-99.99,,2013-03-06 14:52:00,
2013-03-06 10:00:00,39.0,39.0,29.58,NNE,30,34.0,39.0,100,-99.99,,,-99.99,,2013-03-06 15:00:00,
2013-03-06 10:11:00,39.0,39.0,29.58,NNE,30,34.0,39.0,100,-99.99,,,-99.99,,2013-03-06 15:11:00,
2013-03-06 10:21:00,39.0,39.0,29.58,NNE,30,34.0,39.0,100,-99.99,,,-99.99,,2013-03-06 15:21:00,
2013-03-06 10:32:00,39.0,39.0,29.58,NNE,30,34.0,39.0,100,-99.99,,,-99.99,,2013-03-06 15:32:00,
2013-03-06 10:41:00,39.0,39.0,29.58,NNE,30,34.0,39.0,100,-99.99,,,-99.99,,2013-03-06 15:41:00,
2013-03-06 10:51:00,39.0,39.0,29.58,NNE,30,34.0,39.0,100,-99.99,,,-99.99,,2013-03-06 15:51:00,
2013-03-06 11:00:00,38.0,38.0,29.58,NNE,20,34.0,40.0,100,-99.99,,,-99.99,,2013-03-06 16:00:00,
2013-03-06 11:21:00,38.0,38.0,29.58,NNE,20,34.0,40.0,100,-99.99,,,-99.99,,2013-03-06 16:21:00,
2013-03-06 11:32:00,38.0,38.0,29.58,NNE,20,34.0,40.0,100,-99.99,,,-99.99,,2013-03-06 16:32:00,
2013-03-06 11:41:00,38.0,38.0,29.58,NNE,20,34.0,40.0,100,-99.99,,,-99.99,,2013-03-06 16:41:00,
2013-03-06 11:51:00,38.0,38.0,29.58,NNE,20,34.0,40.0,100,-99.99,,,-99.99,,2013-03-06 16:51:00,
2013-03-06 12:00:00,37.0,37.0,29.57,NNE,20,38.0,44.0,100,-99.99,,,-99.99,,2013-03-06 17:00:00,
2013-03-06 12:11:00,37.0,37.0,29.57,NNE,20,38.0,44.0,100,-99.99,,,-99.99,,2013-03-06 17:11:00,
2013-03-06 12:21:00,37.0,37.0,29.57,NNE,20,38.0,44.0,100,-99.99,,,-99.99,,2013-03-06 17:21:00,
2013-03-06 12:31:00,37.0,37.0,29.57,NNE,20,38.0,44.0,100,-99.99,,,-99.99,,2013-03-06 17:31:00,
2013-03-06 12:41:00,37.0,37.0,29.57,NNE,20,38.0,44.0,100,-99.99,,,-99.99,,2013-03-06 17:41:00,
2013-03-06 12:52:00,37.0,37.0,29.57,NNE,20,38.0,44.0,100,-99.99,,,-99.99,,2013-03-06 17:52:00,
2013-03-06 13:00:00,38.0,38.0,29.58,North,10,38.0,47.0,99,-99.99,,,-99.99,,2013-03-06 18:00:00,
2013-03-06 13:28:00,38.0,38.0,29.58,North,10,38.0,47.0,99,-99.99,,,-99.99,,2013-03-06 18:28:00,
2013-03-06 13:41:00,38.0,38.0,29.58,North,10,38.0,47.0,99,-99.99,,,-99.99,,2013-03-06 18:41:00,
2013-03-06 13:52:00,38.0,38.0,29.58,North,10,38.0,47.0,99,-99.99,,,-99.99,,2013-03-06 18:52:00,
2013-03-06 14:00:00,37.0,37.0,29.59,North,10,44.0,51.0,99,-99.99,,,-99.99,,2013-03-06 19:00:00,
2013-03-06 14:11:00,37.0,37.0,29.59,North,10,44.0,51.0,99,-99.99,,,-99.99,,2013-03-06 19:11:00,
2013-03-06 14:21:00,37.0,37.0,29.59,North,10,44.0,51.0,99,-99.99,,,-99.99,,2013-03-06 19:21:00,
2013-03-06 14:31:00,37.0,37.0,29.59,North,10,44.0,51.0,99,-99.99,,,-99.99,,2013-03-06 19:31:00,
2013-03-06 14:42:00,37.0,37.0,29.59,North,10,44.0,51.0,99,-99.99,,,-99.99,,2013-03-06 19:42:00,
2013-03-06 14:52:00,37.0,37.0,29.59,North,10,44.0,51.0,99,-99.99,,,-99.99,,2013-03-06 19:52:00,
2013-03-06 15:00:00,38.0,38.0,29.63,North,360,45.0,51.0,99,-99.99,,,-99.99,,2013-03-06 20:00:00,
2013-03-06 15:21:00,38.0,38.0,29.63,North,360,45.0,51.0,99,-99.99,,,-99.99,,2013-03-06 20:21:00,
2013-03-06 15:31:00,38.0,38.0,29.63,North,360,45.0,51.0,99,-99.99,,,-99.99,,2013-03-06 20:31:00,
2013-03-06 15:41:00,38.0,38.0,29.63,North,360,45.0,51.0,99,-99.99,,,-99.99,,2013-03-06 20:41:00,
2013-03-06 15:52:00,38.0,38.0,29.63,North,360,45.0,51.0,99,-99.99,,,-99.99,,2013-03-06 20:52:00,
2013-03-06 16:00:00,39.0,39.0,29.68,North,360,41.0,48.0,99,-99.99,,,-99.99,,2013-03-06 21:00:00,
2013-03-06 16:11:00,39.0,39.0,29.68,North,360,41.0,48.0,99,-99.99,,,-99.99,,2013-03-06 21:11:00,
2013-03-06 16:21:00,39.0,39.0,29.68,North,360,41.0,48.0,99,-99.99,,,-99.99,,2013-03-06 21:21:00,
2013-03-06 16:31:00,39.0,39.0,29.68,North,360,41.0,48.0,99,-99.99,,,-99.99,,2013-03-06 21:31:00,
2013-03-06 16:41:00,39.0,39.0,29.68,North,360,41.0,48.0,99,-99.99,,,-99.99,,2013-03-06 21:41:00,
2013-03-06 16:51:00,39.0,39.0,29.68,North,360,41.0,48.0,99,-99.99,,,-99.99,,2013-03-06 21:51:00,
2013-03-06 17:00:00,38.0,38.0,29.74,North,360,36.0,41.0,99,-99.99,,,-99.99,,2013-03-06 22:00:00,
2013-03-06 17:11:00,38.0,38.0,29.74,North,360,36.0,41.0,99,-99.99,,,-99.99,,2013-03-06 22:11:00,
2013-03-06 17:21:00,38.0,38.0,29.74,North,360,36.0,41.0,99,-99.99,,,-99.99,,2013-03-06 22:21:00,
2013-03-06 17:31:00,38.0,38.0,29.74,North,360,36.0,41.0,99,-99.99,,,-99.99,,2013-03-06 22:31:00,
2013-03-06 17:41:00,38.0,38.0,29.74,North,360,36.0,41.0,99,-99.99,,,-99.99,,2013-03-06 22:41:00,
2013-03-06 17:51:00,38.0,38.0,29.74,North,360,36.0,41.0,99,-99.99,,,-99.99,,2013-03-06 22:51:00,
2013-03-06 18:00:00,40.0,37.0,29.80,North,360,33.0,40.0,89,-99.99,,,-99.99,,2013-03-06 23:00:00,
2013-03-06 18:11:00,40.0,37.0,29.80,North,360,33.0,40.0,89,-99.99,,,-99.99,,2013-03-06 23:11:00,
2013-03-06 18:21:00,40.0,37.0,29.80,North,360,33.0,40.0,89,-99.99,,,-99.99,,2013-03-06 23:21:00,
2013-03-06 18:31:00,40.0,37.0,29.80,North,360,33.0,40.0,89,-99.99,,,-99.99,,2013-03-06 23:31:00,
2013-03-06 18:41:00,40.0,37.0,29.80,North,360,33.0,40.0,89,-99.99,,,-99.99,,2013-03-06 23:41:00,
2013-03-06 18:52:00,40.0,37.0,29.80,North,360,33.0,40.0,89,-99.99,,,-99.99,,2013-03-06 23:52:00,
2013-03-06 19:00:00,40.0,37.0,29.86,North,350,33.0,38.0,86,-99.99,,,-99.99,,2013-03-07 00:00:00,
2013-03-06 19:21:00,40.0,37.0,29.86,North,350,33.0,38.0,86,-99.99,,,-99.99,,2013-03-07 00:21:00,
2013-03-06 19:31:00,40.0,37.0,29.86,North,350,33.0,38.0,86,-99.99,,,-99.99,,2013-03-07 00:31:00,
2013-03-06 19:41:00,40.0,37.0,29.86,North,350,33.0,38.0,86,-99.99,,,-99.99,,2013-03-07 00:41:00,
2013-03-06 19:51:00,40.0,37.0,29.86,North,350,33.0,38.0,86,-99.99,,,-99.99,,2013-03-07 00:51:00,
2013-03-06 20:00:00,39.0,36.0,29.88,North,350,33.0,38.0,89,-99.99,,,-99.99,,2013-03-07 01:00:00,
2013-03-06 20:21:00,39.0,36.0,29.88,North,350,33.0,38.0,89,-99.99,,,-99.99,,2013-03-07 01:21:00,
2013-03-06 20:31:00,39.0,36.0,29.88,North,350,33.0,38.0,89,-99.99,,,-99.99,,2013-03-07 01:31:00,
2013-03-06 20:41:00,39.0,36.0,29.88,North,350,33.0,38.0,89,-99.99,,,-99.99,,2013-03-07 01:41:00,
2013-03-06 20:51:00,39.0,36.0,29.88,North,350,33.0,38.0,89,-99.99,,,-99.99,,2013-03-07 01:51:00,
2013-03-06 22:00:00,41.0,32.0,29.92,North,360,28.0,32.0,69,-99.99,,,-99.99,,2013-03-07 03:00:00,
2013-03-06 22:11:00,41.0,32.0,29.92,North,360,28.0,32.0,69,-99.99,,,-99.99,,2013-03-07 03:11:00,
2013-03-06 22:21:00,41.0,32.0,29.92,North,360,28.0,32.0,69,-99.99,,,-99.99,,2013-03-07 03:21:00,
2013-03-06 22:31:00,41.0,32.0,29.92,North,360,28.0,32.0,69,-99.99,,,-99.99,,2013-03-07 03:31:00,
2013-03-06 22:41:00,41.0,32.0,29.92,North,360,28.0,32.0,69,-99.99,,,-99.99,,2013-03-07 03:41:00,
2013-03-06 22:51:00,41.0,32.0,29.92,North,360,28.0,32.0,69,-99.99,,,-99.99,,2013-03-07 03:51:00,
2013-03-06 23:00:00,41.0,29.0,29.93,North,360,32.0,37.0,61,-99.99,,,-99.99,,2013-03-07 04:00:00,
2013-03-06 23:21:00,41.0,29.0,29.93,North,360,32.0,37.0,61,-99.99,,,-99.99,,2013-03-07 04:21:00,
2013-03-06 23:31:00,41.0,29.0,29.93,North,360,32.0,37.0,61,-99.99,,,-99.99,,2013-03-07 04:31:00,
2013-03-06 23:41:00,41.0,29.0,29.93,North,360,32.0,37.0,61,-99.99,,,-99.99,,2013-03-07 04:41:00,
2013-03-06 23:51:00,41.0,29.0,29.93,North,360,32.0,37.0,61,-99.99,,,-99.99,,2013-03-07 04:51:00,